Latest Weather Observations for Lucinda

IDQ60801

Issued at 9:13 pm EST Saturday 9 May 2026 (issued every 10 minutes, with the page automatically refreshed every 10 minutes)

About weather observations | Map of weather stations | Latest weather observations for QLD | Other Formats
Station Details ID: 032141 Name: LUCINDA POINT Lat: -18.52 Lon: 146.39 Height: 10.0 m
Data from the previous 72 hours. | See also: Recent months at Lucinda
Date/Time
EST
Temp
°C
App
Temp
°C
Dew
Point
°C
Rel
Hum
%
Delta-T
°C
Wind Press
QNH
hPa
Press
MSL
hPa
Rain since
9am
mm
Dir  Spd
km/h
Gust
km/h
Spd
kts
Gust
kts
09/09:00pm 24.2 24.3 19.9 77 2.8 ESE 19 28 10 15 1018.6 1018.6 0.0
09/08:30pm 24.2 24.1 19.5 75 3.0 SE 19 30 10 16 1018.6 1018.6 0.0
09/08:00pm 24.2 23.9 19.1 73 3.2 SE 19 30 10 16 1018.4 1018.4 0.0
09/07:30pm 24.2 23.6 18.8 72 3.4 SE 20 30 11 16 1018.2 1018.2 0.0
09/07:00pm 24.1 23.8 19.2 74 3.1 SE 19 30 10 16 1018.0 1018.0 0.0
09/06:30pm 23.9 23.5 18.8 73 3.2 SE 19 30 10 16 1017.7 1017.7 0.0
09/06:00pm 23.7 23.9 18.6 73 3.2 ESE 15 30 8 16 1017.6 1017.6 0.0
09/05:30pm 23.7 22.8 18.1 71 3.5 SE 20 32 11 17 1017.2 1017.2 0.0
09/05:00pm 23.7 22.6 17.4 68 3.9 SE 19 30 10 16 1016.7 1016.7 0.0
09/04:30pm 23.9 22.1 15.4 59 5.1 SE 19 30 10 16 1016.4 1016.4 0.0
09/04:00pm 24.0 22.9 14.4 55 5.7 SSE 13 26 7 14 1016.3 1016.3 0.0
09/03:30pm 24.2 23.3 13.7 52 6.1 SSE 11 17 6 9 1016.2 1016.2 0.0
09/03:00pm 24.3 23.4 13.8 52 6.1 SE 11 19 6 10 1016.2 1016.2 0.0
09/02:30pm 24.1 22.2 11.8 46 7.0 S 13 20 7 11 1016.3 1016.3 0.0
09/02:00pm 24.0 22.1 12.9 50 6.4 S 15 22 8 12 1016.3 1016.3 0.0
09/01:30pm 23.7 20.7 12.7 50 6.3 S 20 30 11 16 1016.6 1016.6 0.0
09/01:00pm 23.8 21.3 12.4 48 6.5 S 17 24 9 13 1017.0 1017.0 0.0
09/12:30pm 23.8 19.9 12.1 48 6.6 S 24 28 13 15 1017.3 1017.3 0.0
09/12:00pm 23.8 21.1 11.8 47 6.8 S 17 26 9 14 1017.5 1017.5 0.0
09/11:30am 23.8 20.6 13.1 51 6.2 S 22 30 12 16 1017.9 1017.9 0.0
09/11:00am 24.1 22.8 13.6 52 6.1 SSE 13 24 7 13 1018.4 1018.4 0.0
09/10:30am 23.5 20.0 13.4 53 5.9 SSE 24 28 13 15 1018.6 1018.6 0.0
09/10:00am 23.7 21.1 13.8 53 5.8 S 20 26 11 14 1018.7 1018.7 0.0
09/09:30am 23.5 19.8 13.9 55 5.6 S 26 30 14 16 1018.5 1018.5 0.0
09/09:00am 23.6 20.5 13.5 53 5.9 S 22 33 12 18 1018.5 1018.5 0.0
09/08:30am 23.6 20.6 13.8 54 5.7 S 22 33 12 18 1018.2 1018.2 0.0
09/08:00am 23.8 20.7 13.4 52 6.0 S 22 32 12 17 1018.0 1018.0 0.0
09/07:30am 23.7 21.5 14.4 56 5.5 S 19 26 10 14 1017.6 1017.6 0.0
09/07:00am 23.8 22.0 16.1 62 4.7 S 20 28 11 15 1017.1 1017.1 0.0
09/06:30am 23.7 21.7 16.5 64 4.4 S 22 33 12 18 1016.6 1016.6 0.0
09/06:00am 23.8 22.8 17.5 68 3.9 S 19 28 10 15 1016.2 1016.2 0.0
09/05:30am 23.8 23.9 18.4 72 3.4 S 15 20 8 11 1016.1 1016.1 0.0
09/05:00am 24.0 24.1 19.1 74 3.1 SE 17 30 9 16 1015.9 1015.9 0.0
09/04:30am 24.0 23.4 18.9 73 3.2 SE 20 33 11 18 1015.8 1015.8 0.0
09/04:00am 24.4 23.9 19.2 73 3.3 SE 20 35 11 19 1015.5 1015.5 0.0
09/03:30am 24.5 22.7 18.7 70 3.7 SE 26 39 14 21 1015.6 1015.6 0.0
09/03:00am 24.4 23.9 19.0 72 3.4 SE 20 37 11 20 1015.5 1015.5 0.0
09/02:30am 24.4 22.7 19.0 72 3.4 SE 26 43 14 23 1015.5 1015.5 0.0
09/02:00am 24.5 22.5 19.1 72 3.4 ESE 28 39 15 21 1015.7 1015.7 0.0
09/01:30am 24.6 22.9 19.7 74 3.2 SE 28 41 15 22 1015.9 1015.9 0.0
09/01:00am 24.7 23.9 20.0 75 3.0 ESE 24 37 13 20 1016.1 1016.1 0.0
09/12:30am 24.6 24.0 19.7 74 3.2 ESE 22 32 12 17 1016.3 1016.3 0.0
09/12:00am 24.8 25.1 20.3 76 2.9 SE 19 32 10 17 1016.6 1016.6 0.0
 
Date/Time
EST
Temp
°C
App
Temp
°C
Dew
Point
°C
Rel
Hum
%
Delta-T
°C
Wind Press
QNH
hPa
Press
MSL
hPa
Rain since
9am
mm
Dir  Spd
km/h
Gust
km/h
Spd
kts
Gust
kts
08/11:30pm 24.8 25.0 20.1 75 3.0 ESE 19 28 10 15 1016.7 1016.7 0.0
08/11:00pm 24.8 24.8 19.8 74 3.2 SE 19 32 10 17 1016.8 1016.8 0.0
08/10:30pm 25.0 25.5 20.0 74 3.2 ESE 17 28 9 15 1016.7 1016.7 0.0
08/10:00pm 25.1 26.0 20.1 74 3.2 SE 15 26 8 14 1017.0 1017.0 0.0
08/09:30pm 25.1 25.5 19.9 73 3.4 SE 17 30 9 16 1017.0 1017.0 0.0
08/09:00pm 25.1 25.4 20.4 75 3.1 ESE 19 30 10 16 1017.1 1017.1 0.0
08/08:30pm 25.0 25.3 20.5 76 2.9 SE 19 33 10 18 1016.9 1016.9 0.0
08/08:00pm 24.8 24.8 20.1 75 3.0 ESE 20 30 11 16 1016.6 1016.6 0.0
08/07:30pm 24.9 25.4 20.8 78 2.7 SE 19 30 10 16 1016.2 1016.2 0.0
08/07:00pm 24.8 25.0 20.5 77 2.8 ESE 20 32 11 17 1015.9 1015.9 0.0
08/06:30pm 24.8 25.1 20.5 77 2.8 SE 19 30 10 16 1015.5 1015.5 0.0
08/06:00pm 24.8 24.8 20.1 75 3.0 SE 20 33 11 18 1015.2 1015.2 0.0
08/05:30pm 24.9 24.7 19.7 73 3.4 ESE 20 30 11 16 1014.9 1014.9 0.0
08/05:00pm 24.8 24.7 19.6 73 3.3 SE 19 30 10 16 1014.7 1014.7 0.0
08/04:30pm 25.0 25.0 19.8 73 3.4 SE 19 32 10 17 1014.7 1014.7 0.0
08/04:00pm 25.3 25.5 19.4 70 3.8 SE 17 30 9 16 1014.4 1014.4 0.0
08/03:30pm 25.3 25.1 19.4 70 3.8 SE 19 30 10 16 1014.4 1014.4 0.0
08/03:00pm 25.2 25.0 19.3 70 3.8 SE 19 28 10 15 1014.4 1014.4 0.0
08/02:30pm 25.4 25.1 19.1 68 4.0 ESE 19 30 10 16 1014.7 1014.7 0.0
08/02:00pm 25.4 24.9 19.1 68 4.0 SE 20 30 11 16 1014.9 1014.9 0.0
08/01:30pm 25.4 26.4 20.2 73 3.4 SSE 15 22 8 12 1015.1 1015.1 0.0
08/01:00pm 25.1 25.4 19.7 72 3.5 SSE 17 28 9 15 1015.5 1015.5 0.0
08/12:30pm 25.0 25.0 19.8 73 3.4 S 19 28 10 15 1015.8 1015.8 0.0
08/12:00pm 24.9 24.2 20.2 75 3.1 S 24 32 13 17 1016.2 1016.2 0.0
08/11:30am 24.6 22.6 19.2 72 3.5 S 28 35 15 19 1016.5 1016.5 0.0
08/11:00am 24.5 21.6 18.9 71 3.6 S 32 37 17 20 1016.8 1016.8 0.0
08/10:30am 24.7 22.3 19.1 71 3.6 S 30 37 16 20 1016.8 1016.8 0.0
08/10:00am 24.5 21.7 19.1 72 3.4 S 32 35 17 19 1017.0 1017.0 0.0
08/09:30am 24.6 22.7 20.1 76 2.9 S 30 35 16 19 1016.9 1016.9 0.0
08/09:00am 24.5 22.1 20.0 76 2.9 S 32 35 17 19 1016.6 1016.6 0.0
08/08:30am 24.6 22.6 19.9 75 3.0 S 30 35 16 19 1016.4 1016.4 0.0
08/08:00am 24.9 24.4 19.9 74 3.2 S 22 30 12 16 1016.2 1016.2 0.0
08/07:30am 24.7 24.8 20.0 75 3.0 S 19 26 10 14 1015.8 1015.8 0.0
08/07:00am 24.6 23.8 20.1 76 2.9 S 24 32 13 17 1015.4 1015.4 0.0
08/06:30am 24.5 23.6 20.6 79 2.5 S 26 33 14 18 1015.2 1015.2 0.0
08/06:00am 24.3 23.2 21.0 82 2.2 SSE 28 33 15 18 1014.7 1014.7 0.0
08/05:30am 24.5 24.2 21.8 85 1.8 S 26 32 14 17 1014.3 1014.3 0.0
08/05:00am 24.6 25.0 21.7 84 1.9 S 22 30 12 16 1014.3 1014.3 0.0
08/04:30am 24.6 24.9 22.3 87 1.5 S 24 28 13 15 1014.0 1014.0 0.0
08/04:00am 25.0 27.0 22.3 85 1.8 S 15 22 8 12 1014.0 1014.0 0.0
08/03:30am 24.9 27.2 21.4 81 2.3 S 11 19 6 10 1014.0 1014.0 0.0
08/03:00am 24.7 27.4 21.4 82 2.2 S 9 17 5 9 1013.8 1013.8 0.0
08/02:30am 24.8 27.6 21.5 82 2.2 SSE 9 15 5 8 1014.0 1014.0 0.0
08/02:00am 24.7 28.1 22.0 85 1.8 S 7 13 4 7 1014.3 1014.3 0.0
08/01:30am 24.7 28.0 21.8 84 1.9 S 7 9 4 5 1014.3 1014.3 0.0
08/01:00am 24.8 27.7 21.7 83 2.1 S 9 13 5 7 1014.5 1014.5 0.0
08/12:30am 24.8 27.1 21.3 81 2.3 S 11 15 6 8 1014.7 1014.7 0.0
08/12:00am 24.3 27.5 22.4 89 1.3 SSW 9 11 5 6 1014.9 1014.9 0.0
 
Date/Time
EST
Temp
°C
App
Temp
°C
Dew
Point
°C
Rel
Hum
%
Delta-T
°C
Wind Press
QNH
hPa
Press
MSL
hPa
Rain since
9am
mm
Dir  Spd
km/h
Gust
km/h
Spd
kts
Gust
kts
07/11:30pm 24.0 26.4 22.3 90 1.1 SW 13 15 7 8 1015.0 1015.0 0.0
07/11:00pm 24.7 27.1 22.2 86 1.7 SSW 13 17 7 9 1015.3 1015.3 0.0
07/10:30pm 24.9 26.9 21.6 82 2.2 S 13 15 7 8 1015.4 1015.4 0.0
07/10:00pm 24.9 28.0 21.4 81 2.3 S 7 9 4 5 1015.5 1015.5 0.0
07/09:30pm 24.8 28.2 21.7 83 2.1 S 6 9 3 5 1015.5 1015.5 0.0
07/09:00pm 24.9 28.4 21.8 83 2.1 SE 6 11 3 6 1015.5 1015.5 0.0
07/08:30pm 24.9 28.0 21.4 81 2.3 SE 7 9 4 5 1015.4 1015.4 0.0
07/08:00pm 24.9 28.1 21.6 82 2.2 SE 7 11 4 6 1015.2 1015.2 0.0
07/07:30pm 24.8 27.6 21.5 82 2.2 SE 9 15 5 8 1014.7 1014.7 0.0
07/07:00pm 24.9 28.0 21.4 81 2.3 SE 7 13 4 7 1014.4 1014.4 0.0
07/06:30pm 24.9 27.3 21.6 82 2.2 ESE 11 15 6 8 1014.1 1014.1 0.0
07/06:00pm 25.0 26.7 21.7 82 2.2 ESE 15 20 8 11 1013.8 1013.8 0.0
07/05:30pm 25.2 26.7 21.3 79 2.6 ESE 15 20 8 11 1013.4 1013.4 0.0
07/05:00pm 25.3 26.5 21.4 79 2.6 ESE 17 20 9 11 1013.1 1013.1 0.0
07/04:30pm 25.3 25.7 21.0 77 2.8 ESE 20 26 11 14 1012.7 1012.7 0.0
07/04:00pm 25.4 26.2 21.3 78 2.7 ESE 19 22 10 12 1012.5 1012.5 0.0
07/03:30pm 25.8 27.1 20.8 74 3.3 ESE 15 19 8 10 1012.6 1012.6 0.0
07/03:00pm 26.6 30.0 21.6 74 3.3 SE 6 7 3 4 1012.8 1012.8 0.0
07/02:30pm 25.7 27.9 21.1 76 3.0 S 11 17 6 9 1012.8 1012.8 0.0
07/02:00pm 25.0 25.6 21.1 79 2.6 SSE 19 22 10 12 1012.9 1012.9 0.0
07/01:30pm 25.0 25.5 21.1 79 2.6 S 20 24 11 13 1013.1 1013.1 0.0
07/01:00pm 24.8 25.2 20.9 79 2.6 S 20 26 11 14 1013.4 1013.4 0.0
07/12:30pm 24.7 24.7 21.0 80 2.4 S 22 26 12 14 1013.7 1013.7 0.0
07/12:00pm 24.5 24.5 21.0 81 2.3 S 22 26 12 14 1013.9 1013.9 0.0
07/11:30am 24.4 23.6 20.9 81 2.3 S 26 32 14 17 1014.3 1014.3 0.0
07/11:00am 24.3 23.7 21.2 83 2.0 S 26 30 14 16 1014.7 1014.7 0.0
07/10:30am 24.3 23.7 21.2 83 2.0 S 26 30 14 16 1014.9 1014.9 0.0
07/10:00am 24.2 24.4 21.3 84 1.9 S 22 28 12 15 1015.1 1015.1 0.0
07/09:30am 23.7 24.5 21.8 89 1.3 SSW 20 24 11 13 1015.2 1015.2 0.0
07/09:00am 23.4 24.0 21.3 88 1.4 SW 20 24 11 13 1015.0 1015.0 0.2
07/08:30am 23.1 23.8 21.2 89 1.2 SW 19 22 10 12 1014.7 1014.7 0.2
07/08:00am 22.7 23.8 21.3 92 0.9 SW 17 20 9 11 1014.5 1014.5 0.2
07/07:30am 22.4 23.7 20.9 91 1.0 WSW 15 20 8 11 1014.3 1014.3 0.2
07/07:00am 22.1 22.6 20.9 93 0.8 SW 19 20 10 11 1014.0 1014.0 0.2
07/06:30am 22.9 23.4 20.8 88 1.4 SSW 19 22 10 12 1013.7 1013.7 0.0
07/06:00am 23.1 24.3 21.5 91 1.1 SSW 17 20 9 11 1013.4 1013.4 0.0
07/05:30am 22.5 23.0 21.1 92 0.9 SW 20 24 11 13 1013.0 1013.0 0.0
07/05:00am 22.5 22.8 20.8 90 1.1 SW 20 24 11 13 1012.8 1012.8 0.0
07/04:30am 22.6 23.2 21.1 91 1.0 SW 19 20 10 11 1012.7 1012.7 0.0
07/04:00am 22.7 23.3 21.0 90 1.1 SW 19 22 10 12 1012.6 1012.6 0.0
07/03:30am 23.0 25.0 21.5 91 1.0 SW 13 17 7 9 1012.8 1012.8 0.0
07/03:00am 22.5 23.5 21.1 92 0.9 SW 17 20 9 11 1013.0 1013.0 0.0
07/02:30am 22.5 23.0 20.8 90 1.1 SW 19 20 10 11 1013.1 1013.1 0.0
07/02:00am 22.6 23.1 20.9 90 1.1 SW 19 20 10 11 1013.5 1013.5 0.0
07/01:30am 22.5 23.1 21.0 91 1.0 SW 19 20 10 11 1013.7 1013.7 0.0
07/01:00am 22.5 23.5 21.0 91 1.0 WSW 17 20 9 11 1013.9 1013.9 0.0
07/12:30am 22.7 23.8 21.2 91 1.0 WSW 17 19 9 10 1014.1 1014.1 0.0
07/12:00am 23.0 24.5 21.3 90 1.1 SW 15 17 8 9 1014.2 1014.2 0.0
 
Date/Time
EST
Temp
°C
App
Temp
°C
Dew
Point
°C
Rel
Hum
%
Delta-T
°C
Wind Press
QNH
hPa
Press
MSL
hPa
Rain since
9am
mm
Dir  Spd
km/h
Gust
km/h
Spd
kts
Gust
kts
06/11:30pm 24.6 27.6 21.3 82 2.2 S 7 13 4 7 1014.5 1014.5 0.0
06/11:00pm 24.6 27.0 20.9 80 2.4 S 9 13 5 7 1014.3 1014.3 0.0
06/10:30pm 24.7 27.2 21.8 84 1.9 S 11 13 6 7 1014.6 1014.6 0.0
06/10:00pm 24.7 27.1 21.6 83 2.1 S 11 15 6 8 1014.8 1014.8 0.0
06/09:30pm 24.7 27.4 21.4 82 2.2 SE 9 17 5 9 1014.9 1014.9 0.0

Other formats

Comma delimited format used in spreadsheet applications
http://www.bom.gov.au/fwo/IDQ60801/IDQ60801.94295.axf

JavaScript Object Notation format (JSON) in row-major order
http://www.bom.gov.au/fwo/IDQ60801/IDQ60801.94295.json

Data quality

Most of these data are generated automatically and are frequently updated. Quality checks on data are not normally performed. It is possible for incorrect values to appear. Refer to information at About Latest Weather Observations and please check the disclaimer before using these data.